Time;durP1;ratioP1;P1;durP2;ratioP2;P2;SDS_P1;SDS_P2;PMS_P1;PMS_P2;Temp;Humidity;BMP_temperature;BMP_pressure;BME280_temperature;BME280_humidity;BME280_pressure;Samples;Min_cycle;Max_cycle;Signal;HPM_P1;HPM_P2
2023/11/07 17:26:32;;;;;;;11.40;8.10;;;;;;;11.35;100.00;99010.42;102353;1295;601034;-69
2023/11/07 17:29:01;;;;;;;13.50;6.90;;;;;;;11.30;100.00;99013.55;104576;1272;60151;-68
2023/11/07 17:31:29;;;;;;;11.40;8.30;;;;;;;11.31;100.00;99014.45;104753;1262;59292;-67
2023/11/07 17:33:57;;;;;;;11.60;8.40;;;;;;;11.33;100.00;99016.58;104739;1263;72284;-66
2023/11/07 17:36:24;;;;;;;13.90;8.80;;;;;;;11.31;100.00;99018.20;104890;1264;67589;-67
2023/11/07 17:38:52;;;;;;;13.90;9.80;;;;;;;11.27;100.00;99017.77;104786;1264;73433;-64
2023/11/07 17:41:19;;;;;;;12.60;9.10;;;;;;;11.21;100.00;99019.08;105090;1263;154269;-67
2023/11/07 17:43:47;;;;;;;12.70;9.10;;;;;;;11.15;100.00;99015.89;105142;1257;59251;-66
2023/11/07 17:46:15;;;;;;;14.70;9.10;;;;;;;11.08;100.00;99013.67;105150;1262;73291;-64
2023/11/07 17:48:43;;;;;;;11.60;8.50;;;;;;;11.02;100.00;99011.89;105254;1263;67299;-69
2023/11/07 17:51:11;;;;;;;9.10;7.30;;;;;;;10.97;100.00;99011.85;105172;1257;72383;-69
2023/11/07 17:53:38;;;;;;;11.40;8.60;;;;;;;10.93;100.00;99013.89;105090;1262;60176;-74
2023/11/07 17:56:06;;;;;;;12.40;8.70;;;;;;;10.90;100.00;99009.71;105169;1263;59593;-69
2023/11/07 18:06:22;;;;;;;11.60;7.90;;;;;;;10.70;100.00;99020.88;102428;1292;600783;-70
2023/11/07 18:08:50;;;;;;;12.40;8.10;;;;;;;10.61;100.00;99023.28;104891;1269;59287;-67
2023/11/07 18:11:17;;;;;;;15.50;9.10;;;;;;;10.57;100.00;99021.48;104711;1269;60346;-69
2023/11/07 18:13:45;;;;;;;12.00;8.60;;;;;;;10.53;100.00;99021.73;104670;1266;72148;-70
2023/11/07 18:16:12;;;;;;;12.60;8.10;;;;;;;10.51;100.00;99024.84;104720;1270;68023;-69
2023/11/07 18:18:40;;;;;;;9.30;6.80;;;;;;;10.49;100.00;99023.07;104535;1266;72495;-69
2023/11/07 18:21:26;;;;;;;15.40;8.70;;;;;;;10.49;100.00;99020.64;105034;1256;59646;-69
2023/11/07 18:23:55;;;;;;;11.40;8.50;;;;;;;10.48;100.00;99016.29;105305;1260;59294;-69
2023/11/07 18:26:24;;;;;;;11.40;7.60;;;;;;;10.46;100.00;99021.49;105420;1260;72668;-71
2023/11/07 18:28:51;;;;;;;9.00;7.40;;;;;;;10.43;100.00;99020.30;105186;1260;66597;-70
2023/11/07 18:31:20;;;;;;;11.00;8.70;;;;;;;10.40;100.00;99018.12;105425;1256;72297;-69
2023/11/07 18:33:48;;;;;;;12.00;9.00;;;;;;;10.38;100.00;99018.77;105291;1253;61825;-69
2023/11/07 18:36:18;;;;;;;12.90;9.40;;;;;;;10.36;100.00;99019.00;105345;1254;59600;-69
2023/11/07 18:38:46;;;;;;;11.20;8.40;;;;;;;10.35;100.00;99020.98;105502;1260;71827;-69
2023/11/07 18:41:16;;;;;;;12.40;8.30;;;;;;;10.32;100.00;99020.70;105425;1254;65971;-68
2023/11/07 18:43:44;;;;;;;12.10;8.00;;;;;;;10.31;100.00;99021.54;105372;1259;75032;-67
2023/11/07 18:46:12;;;;;;;10.90;8.00;;;;;;;10.28;100.00;99019.93;105313;1260;59737;-67
2023/11/07 18:48:40;;;;;;;10.50;7.60;;;;;;;10.24;100.00;99012.66;105371;1259;59634;-70
2023/11/07 18:51:11;;;;;;;10.00;7.00;;;;;;;10.20;100.00;99014.40;105427;1259;73206;-67
2023/11/07 18:53:45;;;;;;;13.50;7.10;;;;;;;10.16;100.00;99017.06;105407;1268;66743;-69
2023/11/07 18:56:12;;;;;;;14.00;8.10;;;;;;;10.16;100.00;99020.00;105353;1261;71679;-73
2023/11/07 18:58:41;;;;;;;11.50;8.20;;;;;;;10.14;100.00;99019.92;105716;1257;61163;-74
2023/11/07 19:01:09;;;;;;;12.50;8.40;;;;;;;10.11;100.00;99021.91;105852;1260;59555;-70
2023/11/07 19:03:36;;;;;;;13.50;9.20;;;;;;;10.10;100.00;99022.23;105779;1260;72282;-73
2023/11/07 19:06:04;;;;;;;15.30;8.60;;;;;;;10.07;100.00;99021.73;105685;1257;68212;-72
2023/11/07 19:08:32;;;;;;;10.40;8.70;;;;;;;10.05;100.00;99020.39;105394;1262;71018;-74
2023/11/07 19:11:00;;;;;;;11.80;9.20;;;;;;;10.02;100.00;99018.24;105572;1260;61792;-73
2023/11/07 19:13:28;;;;;;;14.40;9.30;;;;;;;9.98;100.00;99016.92;105390;1260;59684;-73
2023/11/07 19:15:55;;;;;;;14.90;10.20;;;;;;;9.95;100.00;99016.58;105456;1261;73316;-74
2023/11/07 19:18:23;;;;;;;13.30;9.70;;;;;;;9.94;100.00;99012.96;105420;1259;67332;-73
2023/11/07 19:20:53;;;;;;;17.10;10.70;;;;;;;9.92;100.00;99010.55;105666;1260;70952;-72
2023/11/07 19:23:22;;;;;;;17.60;10.50;;;;;;;9.91;100.00;99007.84;105554;1257;59907;-72
2023/11/07 19:25:52;;;;;;;17.70;11.40;;;;;;;9.89;100.00;99006.95;105627;1257;60363;-72
2023/11/07 19:28:20;;;;;;;14.70;10.30;;;;;;;9.87;100.00;99005.80;105458;1261;73726;-73
2023/11/07 19:30:47;;;;;;;14.50;10.80;;;;;;;9.83;100.00;99005.13;105467;1259;68123;-72
2023/11/07 19:33:15;;;;;;;14.20;10.70;;;;;;;9.81;100.00;99006.30;105494;1257;74357;-77
2023/11/07 19:35:44;;;;;;;13.00;9.50;;;;;;;9.80;100.00;99006.83;105598;1255;60487;-73
2023/11/07 19:38:12;;;;;;;14.80;10.70;;;;;;;9.79;100.00;99014.20;105483;1259;60340;-73
2023/11/07 19:40:39;;;;;;;13.30;9.70;;;;;;;9.78;100.00;99013.00;105529;1256;74190;-72
2023/11/07 19:43:07;;;;;;;14.30;9.90;;;;;;;9.78;100.00;99016.44;105638;1259;68134;-73
2023/11/07 19:45:35;;;;;;;13.90;9.60;;;;;;;9.76;100.00;99014.83;105571;1259;72418;-74
2023/11/07 19:48:02;;;;;;;10.80;9.10;;;;;;;9.74;100.00;99021.96;105485;1262;61173;-74
2023/11/07 19:50:31;;;;;;;12.90;9.50;;;;;;;9.70;100.00;99023.52;105573;1259;59790;-74
2023/11/07 19:52:58;;;;;;;13.40;9.00;;;;;;;9.67;100.00;99026.59;105537;1255;73139;-73
2023/11/07 19:55:37;;;;;;;13.40;8.60;;;;;;;9.62;100.00;99027.05;105489;1259;67924;-73
2023/11/07 19:58:05;;;;;;;15.00;8.90;;;;;;;9.60;100.00;99029.86;105595;1259;72757;-73
2023/11/07 20:00:32;;;;;;;13.50;9.70;;;;;;;9.59;100.00;99031.23;105499;1260;60161;-76
2023/11/07 20:03:00;;;;;;;13.30;9.20;;;;;;;9.58;100.00;99032.72;105563;1260;60032;-75
2023/11/07 20:05:28;;;;;;;13.30;9.90;;;;;;;9.58;100.00;99035.61;105676;1260;73181;-73
2023/11/07 20:07:55;;;;;;;13.40;9.80;;;;;;;9.56;100.00;99038.29;105476;1260;70270;-77
2023/11/07 20:10:24;;;;;;;12.80;9.70;;;;;;;9.53;100.00;99040.19;105612;1255;72738;-74
2023/11/07 20:12:52;;;;;;;14.00;9.80;;;;;;;9.50;100.00;99038.58;105582;1258;63895;-74
2023/11/07 20:15:20;;;;;;;12.00;8.90;;;;;;;9.47;100.00;99042.11;105540;1261;59615;-75
2023/11/07 20:17:47;;;;;;;12.00;9.20;;;;;;;9.44;100.00;99044.42;105500;1264;73801;-73
2023/11/07 20:20:15;;;;;;;14.80;9.40;;;;;;;9.42;100.00;99046.64;105588;1261;68826;-73
2023/11/07 20:22:43;;;;;;;14.70;9.40;;;;;;;9.40;100.00;99044.73;105672;1260;71927;-75
2023/11/07 20:25:11;;;;;;;14.80;9.90;;;;;;;9.39;100.00;99048.36;105591;1256;60101;-74
2023/11/07 20:27:39;;;;;;;14.20;9.70;;;;;;;9.36;100.00;99046.03;105512;1256;61332;-74
2023/11/07 20:30:10;;;;;;;16.80;10.20;;;;;;;9.37;100.00;99041.33;105600;1256;73118;-73
2023/11/07 20:32:38;;;;;;;17.00;8.70;;;;;;;9.38;100.00;99042.60;105826;1257;70287;-73
2023/11/07 20:35:06;;;;;;;12.10;8.30;;;;;;;9.36;100.00;99040.23;105680;1254;74924;-73
2023/11/07 20:37:34;;;;;;;13.40;8.50;;;;;;;9.35;100.00;99039.48;105584;1260;60509;-73
2023/11/07 20:40:02;;;;;;;11.90;8.90;;;;;;;9.36;100.00;99037.71;105700;1256;59551;-73
2023/11/07 20:42:29;;;;;;;12.70;7.70;;;;;;;9.36;100.00;99036.19;105818;1256;73119;-74
2023/11/07 20:44:57;;;;;;;12.30;8.40;;;;;;;9.36;100.00;99035.09;105724;1257;68906;-74
2023/11/07 20:47:37;;;;;;;11.00;7.60;;;;;;;9.36;100.00;99038.48;105635;1260;74841;-75
2023/11/07 20:50:05;;;;;;;11.00;7.40;;;;;;;9.36;100.00;99040.20;105686;1258;61934;-72
2023/11/07 20:52:33;;;;;;;9.50;6.70;;;;;;;9.38;100.00;99041.62;105755;1251;62621;-73
2023/11/07 20:55:01;;;;;;;9.20;6.90;;;;;;;9.40;100.00;99041.41;105798;1255;73189;-74
2023/11/07 20:57:28;;;;;;;11.00;7.20;;;;;;;9.41;100.00;99042.09;105722;1258;66449;-74
2023/11/07 20:59:56;;;;;;;9.70;6.80;;;;;;;9.43;100.00;99044.05;105787;1257;72110;-73
2023/11/07 21:02:24;;;;;;;9.80;7.10;;;;;;;9.44;100.00;99041.63;105700;1259;59624;-74
2023/11/07 21:04:54;;;;;;;9.70;6.60;;;;;;;9.43;100.00;99040.80;105768;1254;59815;-72
2023/11/07 21:07:22;;;;;;;9.30;7.40;;;;;;;9.42;100.00;99043.95;105670;1258;73190;-74
2023/11/07 21:09:50;;;;;;;10.60;6.70;;;;;;;9.41;100.00;99040.05;105726;1260;68073;-73
2023/11/07 21:12:19;;;;;;;9.60;6.50;;;;;;;9.39;100.00;99038.75;105735;1251;73627;-73
2023/11/07 21:14:50;;;;;;;9.10;6.70;;;;;;;9.38;100.00;99034.56;105841;1257;59631;-73
2023/11/07 21:17:18;;;;;;;8.20;6.30;;;;;;;9.38;100.00;99033.33;105735;1257;59707;-72
2023/11/07 21:19:45;;;;;;;10.10;6.90;;;;;;;9.34;100.00;99031.06;105742;1254;71819;-73
2023/11/07 21:22:13;;;;;;;11.20;6.80;;;;;;;9.29;100.00;99028.98;105886;1257;66312;-73
2023/11/07 21:24:40;;;;;;;8.30;6.90;;;;;;;9.25;100.00;99028.56;105815;1254;72057;-74
2023/11/07 21:27:08;;;;;;;9.00;7.00;;;;;;;9.19;100.00;99032.01;105818;1252;63917;-74
2023/11/07 21:29:36;;;;;;;9.30;6.40;;;;;;;9.14;100.00;99026.39;105817;1251;59781;-73
2023/11/07 21:40:11;;;;;;;10.10;6.20;;;;;;;8.99;100.00;99011.85;102630;1294;616045;-72
2023/11/07 21:42:38;;;;;;;10.10;6.40;;;;;;;8.95;100.00;99009.84;105515;1257;60097;-73
2023/11/07 21:45:08;;;;;;;10.10;7.40;;;;;;;8.91;100.00;99010.13;105376;1257;60178;-72
2023/11/07 21:47:36;;;;;;;14.00;9.30;;;;;;;8.80;100.00;99009.63;105536;1260;70960;-73
2023/11/07 21:50:08;;;;;;;12.50;8.60;;;;;;;8.65;100.00;99011.50;105478;1257;68150;-73
2023/11/07 21:52:35;;;;;;;10.30;7.60;;;;;;;8.50;100.00;99011.11;105656;1257;231665;-76
2023/11/07 21:55:02;;;;;;;13.10;7.90;;;;;;;8.39;100.00;99015.22;105886;1251;62077;-73
2023/11/07 21:57:29;;;;;;;10.40;7.50;;;;;;;8.30;100.00;99021.52;105888;1251;60359;-73
2023/11/07 21:59:55;;;;;;;10.00;7.00;;;;;;;8.22;100.00;99023.45;105981;1257;71990;-76
2023/11/07 22:02:22;;;;;;;15.10;7.10;;;;;;;8.16;100.00;99021.23;105936;1255;66533;-74
2023/11/07 22:05:04;;;;;;;8.70;7.20;;;;;;;8.17;100.00;99014.48;105856;1256;72527;-73
2023/11/07 22:07:32;;;;;;;9.60;6.60;;;;;;;8.17;100.00;99013.50;105833;1251;60386;-73
2023/11/07 22:09:59;;;;;;;13.20;7.30;;;;;;;8.18;100.00;99013.07;105822;1254;59668;-73
2023/11/07 22:12:25;;;;;;;10.30;7.50;;;;;;;8.21;100.00;99011.76;105876;1256;72967;-73
2023/11/07 22:14:52;;;;;;;9.30;6.50;;;;;;;8.20;100.00;99013.11;105845;1254;68406;-72
2023/11/07 22:17:19;;;;;;;8.70;7.30;;;;;;;8.18;100.00;99015.64;105875;1254;72675;-72
2023/11/07 22:19:45;;;;;;;11.10;7.10;;;;;;;8.13;100.00;99018.02;105827;1254;60200;-72
2023/11/07 22:22:12;;;;;;;10.00;7.00;;;;;;;8.09;100.00;99011.27;105870;1251;60191;-72
2023/11/07 22:24:40;;;;;;;11.60;6.90;;;;;;;8.01;100.00;99011.80;105861;1255;73085;-72
2023/11/07 22:27:09;;;;;;;9.00;7.30;;;;;;;7.92;100.00;99011.65;105849;1253;68535;-72
2023/11/07 22:29:36;;;;;;;9.10;7.50;;;;;;;7.88;100.00;99009.63;109628;1251;72565;-73
2023/11/07 22:32:05;;;;;;;9.20;6.60;;;;;;;7.86;100.00;99014.77;109576;1251;60727;-72
2023/11/07 22:34:31;;;;;;;10.60;7.40;;;;;;;7.87;100.00;99017.86;109604;1251;59067;-72
2023/11/07 22:36:58;;;;;;;12.30;7.00;;;;;;;7.89;100.00;99021.91;109613;1250;72833;-73
2023/11/07 22:39:24;;;;;;;13.50;7.80;;;;;;;7.92;100.00;99021.23;109578;1251;57364;-73
2023/11/07 22:41:52;;;;;;;9.40;6.60;;;;;;;7.96;100.00;99024.20;109594;1252;72452;-73
2023/11/07 22:44:18;;;;;;;10.50;7.00;;;;;;;8.01;100.00;99018.86;109568;1251;57394;-73
2023/11/07 22:46:47;;;;;;;10.40;6.50;;;;;;;8.07;100.00;99014.04;109539;1251;58939;-73
2023/11/07 22:49:14;;;;;;;9.70;6.60;;;;;;;8.18;100.00;99011.09;109611;1251;71761;-73
2023/11/07 22:51:40;;;;;;;9.80;7.60;;;;;;;8.26;100.00;99016.24;109602;1252;65439;-73
2023/11/07 22:54:07;;;;;;;8.40;6.30;;;;;;;8.34;100.00;99016.64;109604;1251;72382;-73
2023/11/07 22:56:35;;;;;;;7.10;6.20;;;;;;;8.43;100.00;99018.66;109533;1251;60446;-73
2023/11/07 22:59:01;;;;;;;8.80;5.90;;;;;;;8.52;100.00;99018.31;109513;1251;59085;-72
2023/11/07 23:01:29;;;;;;;7.20;5.40;;;;;;;8.63;100.00;99020.29;109573;1251;72910;-72
2023/11/07 23:03:56;;;;;;;9.80;5.80;;;;;;;8.74;100.00;99018.27;109615;1251;67560;-73
2023/11/07 23:06:24;;;;;;;7.70;5.30;;;;;;;8.83;100.00;99008.73;109582;1253;71369;-73
2023/11/07 23:08:52;;;;;;;9.40;5.60;;;;;;;8.92;100.00;99004.65;109541;1251;58961;-73
2023/11/07 23:11:18;;;;;;;6.10;5.50;;;;;;;9.04;100.00;99001.33;109579;1252;57357;-73
2023/11/07 23:13:45;;;;;;;9.00;6.00;;;;;;;9.13;100.00;98995.42;109639;1251;72313;-72
2023/11/07 23:16:12;;;;;;;8.10;6.00;;;;;;;9.18;100.00;98993.94;109580;1251;66378;-72
2023/11/07 23:18:38;;;;;;;12.20;6.60;;;;;;;9.22;100.00;98992.05;109598;1251;57477;-73
2023/11/07 23:21:08;;;;;;;9.00;6.30;;;;;;;9.18;100.00;98983.11;109524;1253;60468;-73
2023/11/07 23:23:34;;;;;;;9.70;6.10;;;;;;;9.12;100.00;98975.11;109527;1253;58758;-73
2023/11/07 23:26:01;;;;;;;8.90;5.70;;;;;;;9.09;100.00;98967.38;109592;1252;57890;-73
2023/11/07 23:28:30;;;;;;;6.40;5.80;;;;;;;9.09;100.00;98960.18;109533;1251;66478;-74
2023/11/07 23:30:57;;;;;;;9.10;6.20;;;;;;;9.06;100.00;98961.79;109600;1251;73022;-74
2023/11/07 23:33:23;;;;;;;9.50;6.70;;;;;;;9.05;100.00;98962.35;109554;1251;57338;-73
2023/11/07 23:35:50;;;;;;;8.90;6.00;;;;;;;8.99;100.00;98960.59;109538;1251;59107;-74
2023/11/07 23:38:16;;;;;;;10.20;6.50;;;;;;;8.92;100.00;98957.27;109582;1252;72729;-73
2023/11/07 23:40:43;;;;;;;8.20;5.90;;;;;;;8.86;100.00;98957.06;109577;1250;66553;-73
2023/11/07 23:43:10;;;;;;;10.20;5.50;;;;;;;8.84;100.00;98952.95;109582;1251;71652;-74
2023/11/07 23:45:37;;;;;;;6.80;5.50;;;;;;;8.83;100.00;98953.07;109595;1251;58734;-74
2023/11/07 23:48:04;;;;;;;8.70;7.00;;;;;;;8.83;100.00;98956.61;109586;1251;58957;-73
2023/11/07 23:50:31;;;;;;;9.00;7.10;;;;;;;8.82;100.00;98957.57;109625;1251;72726;-74
2023/11/07 23:52:58;;;;;;;8.00;6.60;;;;;;;8.78;100.00;98967.04;109611;1252;67800;-73
2023/11/07 23:55:25;;;;;;;8.40;7.30;;;;;;;8.71;100.00;98963.74;109586;1251;72431;-74
2023/11/07 23:57:52;;;;;;;9.90;7.20;;;;;;;8.62;100.00;98957.48;109563;1251;61750;-74
